Time;durP1;ratioP1;P1;durP2;ratioP2;P2;SDS_P1;SDS_P2;PMS_P1;PMS_P2;Temp;Humidity;BMP_temperature;BMP_pressure;BME280_temperature;BME280_humidity;BME280_pressure;Samples;Min_cycle;Max_cycle;Signal;HPM_P1;HPM_P2
2022/12/17 13:05:54;;;;;;;70.50;31.42;;;;;;;;;;4994502;28;20193;-76
2022/12/17 13:08:22;;;;;;;72.22;30.35;;;;;;;;;;4992576;28;20046;-75
2022/12/17 13:10:50;;;;;;;72.07;33.33;;;;;;;;;;4999044;28;20061;-74
2022/12/17 13:13:23;;;;;;;70.63;31.48;;;;;;;;;;5001638;28;20053;-75
2022/12/17 13:15:54;;;;;;;70.72;31.50;;;;;;;;;;4999826;28;20046;-73
2022/12/17 13:18:24;;;;;;;71.13;30.95;;;;;;;;;;4997219;28;20121;-74
2022/12/17 13:20:59;;;;;;;68.28;31.08;;;;;;;;;;5003553;28;20091;-73
2022/12/17 13:23:28;;;;;;;73.97;31.02;;;;;;;;;;4998899;28;20049;-74
2022/12/17 13:26:19;;;;;;;70.30;29.45;;;;;;;;;;5000241;28;20061;-74
2022/12/17 13:29:01;;;;;;;69.78;31.20;;;;;;;;;;4993646;28;20046;-74
2022/12/17 13:31:31;;;;;;;68.50;30.52;;;;;;;;;;5003780;28;20425;-74
2022/12/17 13:34:03;;;;;;;73.65;30.30;;;;;;;;;;5003643;28;20052;-74
2022/12/17 13:36:35;;;;;;;75.30;31.05;;;;;;;;;;5003235;28;20067;-73
2022/12/17 13:39:07;;;;;;;74.93;31.10;;;;;;;;;;4996769;28;20617;-74
2022/12/17 13:41:37;;;;;;;67.82;31.92;;;;;;;;;;4992174;28;20056;-74
2022/12/17 13:44:16;;;;;;;73.43;31.20;;;;;;;;;;5002272;28;20587;-75
2022/12/17 13:46:46;;;;;;;72.13;31.75;;;;;;;;;;4998569;28;20061;-74
2022/12/17 13:49:17;;;;;;;68.10;31.20;;;;;;;;;;5003932;28;20056;-73
2022/12/17 13:51:44;;;;;;;66.70;30.88;;;;;;;;;;5002731;28;20060;-74
2022/12/17 13:54:15;;;;;;;70.75;30.42;;;;;;;;;;5002185;28;20041;-74
2022/12/17 13:56:42;;;;;;;74.78;32.50;;;;;;;;;;5003217;28;20061;-76
2022/12/17 13:59:17;;;;;;;72.05;31.95;;;;;;;;;;5004289;28;20053;-74
2022/12/17 14:01:46;;;;;;;69.63;29.35;;;;;;;;;;5000102;28;20045;-76
2022/12/17 14:04:20;;;;;;;75.57;31.77;;;;;;;;;;4999213;28;20053;-75
2022/12/17 14:06:47;;;;;;;71.30;30.42;;;;;;;;;;5000011;28;20103;-74
2022/12/17 14:09:17;;;;;;;69.13;30.45;;;;;;;;;;4998559;28;20038;-75
2022/12/17 14:14:31;;;;;;;78.35;31.55;;;;;;;;;;5002691;28;20968;-74
2022/12/17 14:17:00;;;;;;;74.55;32.00;;;;;;;;;;5004487;28;20059;-75
2022/12/17 14:19:28;;;;;;;69.85;29.35;;;;;;;;;;4997803;28;20057;-75
2022/12/17 14:21:55;;;;;;;67.60;29.30;;;;;;;;;;5008557;28;20423;-75
2022/12/17 14:24:27;;;;;;;72.78;31.65;;;;;;;;;;5003373;28;20071;-75
2022/12/17 14:26:56;;;;;;;74.65;29.95;;;;;;;;;;5012170;28;20120;-75
2022/12/17 14:29:23;;;;;;;71.15;30.95;;;;;;;;;;5007051;28;20460;-75
2022/12/17 14:31:55;;;;;;;67.40;30.23;;;;;;;;;;5006643;28;20440;-75
2022/12/17 14:34:24;;;;;;;75.95;31.40;;;;;;;;;;5005797;28;20045;-74
2022/12/17 14:36:54;;;;;;;72.22;30.55;;;;;;;;;;5006385;28;20478;-74
2022/12/17 14:39:24;;;;;;;67.80;30.65;;;;;;;;;;4997724;28;20590;-75
2022/12/17 14:44:38;;;;;;;77.53;32.42;;;;;;;;;;5005872;28;20056;-75
2022/12/17 14:47:15;;;;;;;71.65;31.23;;;;;;;;;;5005455;28;20057;-74
2022/12/17 14:49:52;;;;;;;70.65;32.00;;;;;;;;;;5008261;28;20644;-74
2022/12/17 14:52:23;;;;;;;71.78;30.98;;;;;;;;;;5002676;28;20049;-74
2022/12/17 14:54:50;;;;;;;76.05;32.67;;;;;;;;;;5000063;28;20053;-75
2022/12/17 14:57:20;;;;;;;76.57;32.20;;;;;;;;;;5008794;28;20058;-73
2022/12/17 14:59:48;;;;;;;84.15;32.63;;;;;;;;;;5002976;28;20056;-73
2022/12/17 15:02:22;;;;;;;77.68;32.97;;;;;;;;;;5005907;28;20663;-74
2022/12/17 15:04:51;;;;;;;77.68;33.25;;;;;;;;;;4997409;28;20125;-73
2022/12/17 15:07:23;;;;;;;77.80;31.77;;;;;;;;;;5000973;28;20073;-74
2022/12/17 15:09:51;;;;;;;80.85;33.00;;;;;;;;;;5007623;28;20769;-74
2022/12/17 15:12:19;;;;;;;77.78;33.83;;;;;;;;;;4996532;28;20052;-72
2022/12/17 15:14:46;;;;;;;82.60;34.05;;;;;;;;;;4979840;28;20050;-75
2022/12/17 15:17:14;;;;;;;81.82;32.17;;;;;;;;;;4998831;28;20570;-73
2022/12/17 15:19:41;;;;;;;83.40;34.10;;;;;;;;;;5015446;28;20053;-74
2022/12/17 15:22:15;;;;;;;81.45;34.40;;;;;;;;;;5001838;28;20382;-74
2022/12/17 15:24:42;;;;;;;85.25;36.08;;;;;;;;;;4998371;28;20060;-74
2022/12/17 15:27:10;;;;;;;79.93;34.65;;;;;;;;;;5002699;28;20063;-76
2022/12/17 15:29:37;;;;;;;81.40;35.30;;;;;;;;;;5001408;28;20047;-73
2022/12/17 15:32:05;;;;;;;91.65;37.00;;;;;;;;;;5002570;28;20107;-73
2022/12/17 15:34:32;;;;;;;91.68;38.60;;;;;;;;;;5002844;28;20683;-75
2022/12/17 15:36:59;;;;;;;87.95;37.47;;;;;;;;;;4999184;28;20695;-74
2022/12/17 15:39:28;;;;;;;89.82;34.92;;;;;;;;;;4999932;28;20048;-74
2022/12/17 15:44:36;;;;;;;89.88;35.30;;;;;;;;;;4986576;28;20076;-74
2022/12/17 15:47:03;;;;;;;89.63;36.83;;;;;;;;;;4998465;28;20107;-76
2022/12/17 15:49:31;;;;;;;86.10;35.47;;;;;;;;;;4999220;28;20048;-75
2022/12/17 15:51:58;;;;;;;94.15;38.65;;;;;;;;;;5000711;28;20525;-74
2022/12/17 15:54:25;;;;;;;89.07;36.15;;;;;;;;;;4999213;28;20050;-75
2022/12/17 15:56:55;;;;;;;85.70;34.85;;;;;;;;;;5001321;28;20147;-74
2022/12/17 15:59:22;;;;;;;81.88;35.13;;;;;;;;;;4999869;28;20045;-74
2022/12/17 16:01:49;;;;;;;90.95;35.55;;;;;;;;;;5000901;28;20061;-75
2022/12/17 16:04:17;;;;;;;87.07;36.03;;;;;;;;;;4998793;28;20053;-74
2022/12/17 16:06:44;;;;;;;93.57;36.70;;;;;;;;;;5002735;28;20057;-74
2022/12/17 16:09:11;;;;;;;83.22;35.35;;;;;;;;;;5000067;28;20046;-74
2022/12/17 16:11:38;;;;;;;88.68;34.97;;;;;;;;;;4998163;28;20452;-74
2022/12/17 16:14:07;;;;;;;91.55;35.53;;;;;;;;;;5010876;28;20053;-74
2022/12/17 16:16:34;;;;;;;88.30;36.17;;;;;;;;;;4997100;28;20060;-73
2022/12/17 16:19:02;;;;;;;85.78;34.45;;;;;;;;;;4999040;28;20052;-75
2022/12/17 16:21:29;;;;;;;87.85;35.65;;;;;;;;;;4999499;28;20060;-74
2022/12/17 16:23:56;;;;;;;93.88;36.10;;;;;;;;;;5001728;28;20053;-74
2022/12/17 16:26:23;;;;;;;90.38;36.25;;;;;;;;;;5001139;28;20721;-74
2022/12/17 16:28:51;;;;;;;87.30;36.05;;;;;;;;;;5003239;28;20045;-74
2022/12/17 16:31:19;;;;;;;88.75;36.80;;;;;;;;;;4999678;28;20045;-74
2022/12/17 16:33:47;;;;;;;85.60;35.55;;;;;;;;;;5002216;28;20600;-74
2022/12/17 16:36:15;;;;;;;87.15;35.38;;;;;;;;;;5005408;28;20049;-75
2022/12/17 16:38:44;;;;;;;92.97;37.50;;;;;;;;;;5003000;28;20041;-73
2022/12/17 16:41:11;;;;;;;89.25;37.33;;;;;;;;;;5005548;28;20077;-74
2022/12/17 16:43:39;;;;;;;87.32;36.47;;;;;;;;;;5005696;28;20068;-75
2022/12/17 16:46:06;;;;;;;90.72;36.95;;;;;;;;;;5002785;28;20051;-74
2022/12/17 16:48:37;;;;;;;134.57;58.67;;;;;;;;;;5007970;28;20049;-74
2022/12/17 16:51:15;;;;;;;98.05;39.40;;;;;;;;;;5023320;28;20149;-74
2022/12/17 16:53:42;;;;;;;86.60;35.85;;;;;;;;;;5005099;28;20056;-74
2022/12/17 16:56:15;;;;;;;96.22;38.63;;;;;;;;;;5005076;28;20056;-74
2022/12/17 16:58:42;;;;;;;88.78;36.92;;;;;;;;;;5000231;28;20064;-74
2022/12/17 17:01:10;;;;;;;88.30;35.55;;;;;;;;;;4998024;28;20050;-74
2022/12/17 17:03:41;;;;;;;88.88;36.45;;;;;;;;;;5000182;28;20084;-74
2022/12/17 17:06:08;;;;;;;85.57;34.58;;;;;;;;;;5003300;28;20058;-74
2022/12/17 17:08:36;;;;;;;88.15;36.13;;;;;;;;;;5004748;28;20057;-74
2022/12/17 17:11:10;;;;;;;90.25;37.63;;;;;;;;;;5002274;28;20052;-74
2022/12/17 17:13:37;;;;;;;97.00;36.65;;;;;;;;;;5011966;28;20049;-74
2022/12/17 17:16:05;;;;;;;88.65;36.33;;;;;;;;;;5017291;28;20100;-74
2022/12/17 17:18:32;;;;;;;86.57;36.55;;;;;;;;;;4999180;28;20060;-74
2022/12/17 17:21:30;;;;;;;88.13;37.60;;;;;;;;;;5003762;28;20459;-74
2022/12/17 17:24:00;;;;;;;90.18;36.95;;;;;;;;;;4916420;29;20062;-73
2022/12/17 17:26:27;;;;;;;87.35;36.08;;;;;;;;;;4986054;28;20053;-74
2022/12/17 17:28:55;;;;;;;87.63;35.88;;;;;;;;;;5004498;28;20423;-74
2022/12/17 17:31:23;;;;;;;92.38;37.20;;;;;;;;;;5005139;28;20073;-74
2022/12/17 17:33:51;;;;;;;91.82;35.95;;;;;;;;;;5004331;28;20684;-74
2022/12/17 17:36:19;;;;;;;89.22;36.10;;;;;;;;;;5003620;28;20052;-74
2022/12/17 17:38:47;;;;;;;92.57;36.88;;;;;;;;;;4999797;28;20124;-74
2022/12/17 17:41:17;;;;;;;92.93;36.42;;;;;;;;;;5016381;28;20084;-74
2022/12/17 17:43:44;;;;;;;85.38;36.17;;;;;;;;;;5000062;28;20111;-74
2022/12/17 17:46:12;;;;;;;93.18;37.28;;;;;;;;;;5002634;28;20058;-73
2022/12/17 17:48:40;;;;;;;97.47;37.30;;;;;;;;;;4998931;28;20060;-73
2022/12/17 17:51:09;;;;;;;83.90;34.42;;;;;;;;;;5003895;28;20041;-75
2022/12/17 17:53:36;;;;;;;90.85;36.58;;;;;;;;;;4998355;28;20064;-76
2022/12/17 17:56:05;;;;;;;89.85;35.90;;;;;;;;;;4995481;28;20050;-74
2022/12/17 17:58:34;;;;;;;94.72;36.60;;;;;;;;;;4997468;28;20774;-75
2022/12/17 18:01:07;;;;;;;89.57;35.95;;;;;;;;;;4992396;28;20427;-74
2022/12/17 18:03:35;;;;;;;98.22;38.13;;;;;;;;;;5012041;28;20144;-74
2022/12/17 18:06:02;;;;;;;94.40;37.78;;;;;;;;;;4998651;28;20291;-75
2022/12/17 18:08:30;;;;;;;100.68;39.00;;;;;;;;;;4997224;28;20061;-74
2022/12/17 18:10:58;;;;;;;97.60;37.10;;;;;;;;;;4993025;28;20049;-76
2022/12/17 18:16:12;;;;;;;94.30;36.55;;;;;;;;;;4991099;28;20081;-76
2022/12/17 18:18:40;;;;;;;97.70;38.13;;;;;;;;;;4998754;28;20057;-75
2022/12/17 18:21:08;;;;;;;95.15;36.63;;;;;;;;;;4995927;28;20049;-75
2022/12/17 18:23:36;;;;;;;94.35;38.50;;;;;;;;;;4993945;28;20451;-75
2022/12/17 18:26:07;;;;;;;94.03;38.58;;;;;;;;;;4992678;28;20072;-74
2022/12/17 18:28:34;;;;;;;100.90;38.65;;;;;;;;;;4993406;28;20163;-74
2022/12/17 18:31:06;;;;;;;88.53;34.95;;;;;;;;;;4993004;28;20519;-77
2022/12/17 18:33:34;;;;;;;87.80;35.90;;;;;;;;;;4994843;28;20057;-75
2022/12/17 18:36:02;;;;;;;85.50;36.58;;;;;;;;;;4998907;28;20951;-73
2022/12/17 18:38:29;;;;;;;88.10;35.22;;;;;;;;;;4990992;28;20139;-75
2022/12/17 18:40:56;;;;;;;99.07;37.00;;;;;;;;;;4997280;28;20054;-72
2022/12/17 18:43:23;;;;;;;88.90;35.88;;;;;;;;;;4996754;28;20805;-72
2022/12/17 18:45:50;;;;;;;90.90;36.05;;;;;;;;;;5009235;28;20042;-73
2022/12/17 18:48:17;;;;;;;95.43;36.78;;;;;;;;;;4991312;28;20060;-73
2022/12/17 18:50:46;;;;;;;90.82;35.38;;;;;;;;;;4994908;28;20046;-75
2022/12/17 18:53:13;;;;;;;86.90;35.10;;;;;;;;;;4994417;28;20069;-73
2022/12/17 18:55:41;;;;;;;87.03;35.13;;;;;;;;;;4995552;28;20096;-72
2022/12/17 18:58:09;;;;;;;99.18;37.45;;;;;;;;;;4993631;28;20167;-74
2022/12/17 19:00:38;;;;;;;89.90;36.17;;;;;;;;;;4988287;28;20049;-75
2022/12/17 19:03:06;;;;;;;91.65;36.78;;;;;;;;;;4996433;28;21400;-73
2022/12/17 19:05:33;;;;;;;93.88;36.00;;;;;;;;;;4998559;28;20045;-75
2022/12/17 19:08:02;;;;;;;89.90;35.65;;;;;;;;;;4995910;28;20069;-75
2022/12/17 19:10:29;;;;;;;94.55;37.65;;;;;;;;;;4992106;28;20064;-75
2022/12/17 19:12:56;;;;;;;89.05;34.95;;;;;;;;;;4991385;28;20540;-75
2022/12/17 19:15:24;;;;;;;90.97;34.88;;;;;;;;;;5004806;28;20053;-74
2022/12/17 19:17:51;;;;;;;85.93;34.50;;;;;;;;;;4988519;28;20065;-74
2022/12/17 19:20:19;;;;;;;91.15;36.65;;;;;;;;;;5000145;28;20052;-74
2022/12/17 19:22:46;;;;;;;103.72;37.25;;;;;;;;;;5001185;28;20080;-74
2022/12/17 19:25:14;;;;;;;101.10;37.03;;;;;;;;;;5011977;28;20103;-73
2022/12/17 19:27:42;;;;;;;91.47;35.13;;;;;;;;;;4997655;28;20052;-73
2022/12/17 19:30:10;;;;;;;96.60;38.60;;;;;;;;;;5003505;28;20508;-73
2022/12/17 19:32:37;;;;;;;98.68;36.25;;;;;;;;;;5001191;28;20053;-73
2022/12/17 19:35:05;;;;;;;96.32;36.10;;;;;;;;;;5001345;28;20314;-73
2022/12/17 19:37:32;;;;;;;101.05;35.50;;;;;;;;;;4994370;28;20049;-74
2022/12/17 19:39:59;;;;;;;97.15;35.53;;;;;;;;;;4991601;28;20053;-74
2022/12/17 19:42:28;;;;;;;93.45;35.10;;;;;;;;;;4994893;28;20057;-73
2022/12/17 19:44:55;;;;;;;109.75;38.10;;;;;;;;;;4998033;28;20692;-73
2022/12/17 19:47:23;;;;;;;94.93;36.95;;;;;;;;;;4996924;28;20128;-73
2022/12/17 19:49:50;;;;;;;94.85;36.53;;;;;;;;;;4995664;28;20076;-73
2022/12/17 19:52:18;;;;;;;94.75;36.30;;;;;;;;;;4999868;28;20144;-74
2022/12/17 19:54:45;;;;;;;96.55;36.78;;;;;;;;;;4996338;28;20053;-74
2022/12/17 19:57:12;;;;;;;104.75;36.40;;;;;;;;;;4995973;28;20157;-74
2022/12/17 19:59:41;;;;;;;104.38;37.17;;;;;;;;;;4997735;28;20493;-74
2022/12/17 20:02:09;;;;;;;103.47;37.25;;;;;;;;;;4996400;28;20046;-73
2022/12/17 20:04:36;;;;;;;106.35;37.15;;;;;;;;;;4985872;28;20364;-73
2022/12/17 20:07:04;;;;;;;101.10;37.17;;;;;;;;;;4997005;28;20064;-73
2022/12/17 20:09:31;;;;;;;104.25;37.17;;;;;;;;;;4993920;28;20049;-73
2022/12/17 20:11:58;;;;;;;103.68;36.92;;;;;;;;;;4992168;28;20053;-73
2022/12/17 20:14:27;;;;;;;99.68;37.92;;;;;;;;;;4993224;28;20161;-74
2022/12/17 20:16:57;;;;;;;93.03;36.08;;;;;;;;;;4988064;28;20050;-75
2022/12/17 20:19:25;;;;;;;97.43;36.95;;;;;;;;;;4991015;28;20505;-74
2022/12/17 20:21:53;;;;;;;95.57;36.95;;;;;;;;;;4993485;28;20132;-74
2022/12/17 20:24:21;;;;;;;97.00;35.58;;;;;;;;;;4988453;28;20054;-74
2022/12/17 20:26:49;;;;;;;94.43;35.00;;;;;;;;;;5001917;28;20487;-74
2022/12/17 20:29:17;;;;;;;92.28;35.38;;;;;;;;;;5015839;28;20050;-74
2022/12/17 20:31:44;;;;;;;107.65;36.42;;;;;;;;;;4998072;28;20050;-74
2022/12/17 20:34:13;;;;;;;103.18;36.78;;;;;;;;;;4990076;28;20132;-73
2022/12/17 20:36:41;;;;;;;103.47;36.72;;;;;;;;;;4994421;28;20053;-74
2022/12/17 20:39:09;;;;;;;106.15;39.75;;;;;;;;;;5000712;28;20076;-74
2022/12/17 20:41:36;;;;;;;97.78;37.58;;;;;;;;;;4998377;28;20050;-74
2022/12/17 20:44:04;;;;;;;110.47;37.00;;;;;;;;;;4985622;28;20054;-74
2022/12/17 20:46:32;;;;;;;102.95;37.95;;;;;;;;;;4995692;28;20867;-74
2022/12/17 20:49:00;;;;;;;107.88;37.70;;;;;;;;;;4990836;28;20041;-73
2022/12/17 20:51:29;;;;;;;116.97;40.17;;;;;;;;;;4984698;28;20054;-73
2022/12/17 20:53:57;;;;;;;102.38;36.42;;;;;;;;;;4998108;28;20049;-73
2022/12/17 20:56:25;;;;;;;109.93;37.08;;;;;;;;;;5002014;28;20042;-73
2022/12/17 20:58:53;;;;;;;100.30;36.45;;;;;;;;;;5001675;28;20053;-73
2022/12/17 21:01:22;;;;;;;104.18;36.70;;;;;;;;;;4991822;28;20492;-73
2022/12/17 21:03:49;;;;;;;107.95;35.72;;;;;;;;;;5000257;28;20570;-73
2022/12/17 21:06:17;;;;;;;102.50;35.22;;;;;;;;;;4998238;28;20049;-73
2022/12/17 21:08:47;;;;;;;98.07;35.08;;;;;;;;;;5002261;28;20124;-73
2022/12/17 21:11:15;;;;;;;117.00;39.67;;;;;;;;;;5007310;28;20049;-73
2022/12/17 21:13:43;;;;;;;104.05;35.50;;;;;;;;;;5003917;28;20050;-74
2022/12/17 21:16:11;;;;;;;116.40;36.25;;;;;;;;;;5019360;28;20041;-73
2022/12/17 21:18:38;;;;;;;106.20;36.10;;;;;;;;;;5004742;28;20111;-74
2022/12/17 21:21:07;;;;;;;102.20;36.08;;;;;;;;;;5002916;28;20084;-73
2022/12/17 21:23:35;;;;;;;108.88;34.90;;;;;;;;;;5007997;28;20053;-74
2022/12/17 21:26:05;;;;;;;105.00;33.72;;;;;;;;;;4998705;28;20061;-74
2022/12/17 21:28:32;;;;;;;102.20;36.00;;;;;;;;;;5004823;28;20739;-74
2022/12/17 21:31:00;;;;;;;109.07;38.05;;;;;;;;;;5004103;28;20053;-74
2022/12/17 21:33:27;;;;;;;115.00;37.75;;;;;;;;;;5005094;28;20053;-74
2022/12/17 21:35:58;;;;;;;114.88;38.03;;;;;;;;;;5000352;28;20741;-74
2022/12/17 21:38:26;;;;;;;105.80;34.47;;;;;;;;;;5002833;28;20333;-74
2022/12/17 21:40:53;;;;;;;116.20;37.83;;;;;;;;;;5002067;28;20555;-74
2022/12/17 21:43:23;;;;;;;113.72;35.72;;;;;;;;;;5008331;28;20397;-74
2022/12/17 21:45:50;;;;;;;111.43;36.85;;;;;;;;;;5006622;28;20060;-74
2022/12/17 21:48:17;;;;;;;114.82;38.55;;;;;;;;;;5004827;28;20389;-74
2022/12/17 21:50:45;;;;;;;108.07;36.42;;;;;;;;;;5004501;28;20042;-74
2022/12/17 21:53:13;;;;;;;117.15;37.30;;;;;;;;;;5003088;28;20129;-74
2022/12/17 21:55:40;;;;;;;116.53;36.22;;;;;;;;;;5008937;28;20159;-74
2022/12/17 21:58:08;;;;;;;111.32;37.58;;;;;;;;;;5006973;28;20454;-73
2022/12/17 22:00:37;;;;;;;120.88;35.60;;;;;;;;;;5000748;28;20061;-74
2022/12/17 22:03:04;;;;;;;111.82;37.47;;;;;;;;;;5008788;28;20435;-73
2022/12/17 22:05:31;;;;;;;115.78;37.30;;;;;;;;;;5007111;28;20127;-73
2022/12/17 22:07:59;;;;;;;113.47;37.85;;;;;;;;;;5006705;28;20057;-73
2022/12/17 22:10:27;;;;;;;107.55;37.65;;;;;;;;;;5007622;28;20197;-73
2022/12/17 22:15:40;;;;;;;112.78;36.65;;;;;;;;;;4983426;28;20839;-72
2022/12/17 22:18:08;;;;;;;114.72;38.42;;;;;;;;;;4983860;28;20532;-73
2022/12/17 22:20:35;;;;;;;108.97;36.60;;;;;;;;;;4995229;28;20055;-73
2022/12/17 22:23:04;;;;;;;112.22;37.72;;;;;;;;;;4974203;28;20693;-73
2022/12/17 22:25:31;;;;;;;113.05;36.60;;;;;;;;;;4983780;28;20085;-73
2022/12/17 22:27:58;;;;;;;108.50;36.17;;;;;;;;;;4982649;28;20053;-73
2022/12/17 22:33:12;;;;;;;109.72;36.97;;;;;;;;;;4984120;28;20042;-73
2022/12/17 22:35:41;;;;;;;124.75;40.05;;;;;;;;;;4982748;28;20433;-73
2022/12/17 22:38:09;;;;;;;121.30;39.72;;;;;;;;;;4991803;28;20156;-73
2022/12/17 22:40:37;;;;;;;120.00;39.80;;;;;;;;;;4986785;28;20061;-73
2022/12/17 22:45:49;;;;;;;110.28;37.67;;;;;;;;;;4977464;28;20108;-73
2022/12/17 22:48:18;;;;;;;114.90;38.25;;;;;;;;;;4984341;28;20507;-73
2022/12/17 22:50:45;;;;;;;114.65;37.85;;;;;;;;;;4983675;28;20046;-73
2022/12/17 22:53:13;;;;;;;113.50;37.97;;;;;;;;;;4982636;28;20056;-73
2022/12/17 22:55:40;;;;;;;119.60;38.33;;;;;;;;;;4982614;28;20053;-76
2022/12/17 22:58:07;;;;;;;104.35;38.60;;;;;;;;;;4981963;28;20060;-75
2022/12/17 23:00:36;;;;;;;110.30;36.78;;;;;;;;;;4983462;28;20120;-75
2022/12/17 23:03:03;;;;;;;107.65;36.22;;;;;;;;;;4983048;28;20053;-75
2022/12/17 23:05:32;;;;;;;109.75;38.13;;;;;;;;;;4980359;28;20130;-75
2022/12/17 23:07:59;;;;;;;113.68;36.50;;;;;;;;;;4983435;28;20058;-75
2022/12/17 23:10:27;;;;;;;111.75;37.22;;;;;;;;;;4978785;28;20073;-75
2022/12/17 23:12:55;;;;;;;100.32;35.67;;;;;;;;;;4980180;28;20060;-76
2022/12/17 23:15:27;;;;;;;110.20;36.63;;;;;;;;;;4981764;28;20046;-75
2022/12/17 23:17:56;;;;;;;107.90;36.97;;;;;;;;;;4978010;28;20050;-76
2022/12/17 23:20:24;;;;;;;105.47;35.95;;;;;;;;;;4984951;28;20412;-76
2022/12/17 23:22:52;;;;;;;108.88;36.33;;;;;;;;;;4981959;28;20452;-76
2022/12/17 23:25:20;;;;;;;115.13;39.10;;;;;;;;;;4981586;28;20050;-76
2022/12/17 23:27:47;;;;;;;114.25;39.08;;;;;;;;;;4968489;28;20564;-76
2022/12/17 23:30:15;;;;;;;114.65;38.50;;;;;;;;;;4980823;28;20050;-75
2022/12/17 23:32:43;;;;;;;117.82;37.55;;;;;;;;;;4979718;28;20176;-75
2022/12/17 23:35:10;;;;;;;117.68;37.22;;;;;;;;;;4982819;28;20042;-75
2022/12/17 23:37:38;;;;;;;117.95;38.88;;;;;;;;;;4970230;28;20058;-75
2022/12/17 23:40:08;;;;;;;113.50;37.35;;;;;;;;;;4979021;28;20523;-75
2022/12/17 23:42:35;;;;;;;121.93;38.50;;;;;;;;;;4973987;28;20136;-75
2022/12/17 23:45:02;;;;;;;112.68;38.28;;;;;;;;;;4984323;28;20069;-75
2022/12/17 23:47:29;;;;;;;118.20;38.10;;;;;;;;;;4984037;28;20050;-75
2022/12/17 23:49:56;;;;;;;120.40;39.45;;;;;;;;;;4975506;28;20065;-76
2022/12/17 23:52:24;;;;;;;117.18;37.92;;;;;;;;;;4981247;28;20045;-76
2022/12/17 23:54:51;;;;;;;118.93;38.05;;;;;;;;;;4972404;28;20046;-76
2022/12/17 23:57:19;;;;;;;114.82;39.03;;;;;;;;;;4980333;28;20414;-76
2022/12/17 23:59:47;;;;;;;122.38;37.78;;;;;;;;;;4983044;28;20042;-76
